createdAt,value
2023-01-10T00:00:13.602Z,100084.44
2023-01-10T00:02:40.803Z,100084.31
2023-01-10T00:05:07.777Z,100084.69
2023-01-10T00:07:34.269Z,100092.34
2023-01-10T00:10:01.307Z,100084.09
2023-01-10T00:12:28.465Z,100089.91
2023-01-10T00:14:55.243Z,100095.25
2023-01-10T00:17:21.650Z,100093.84
2023-01-10T00:19:48.424Z,100093.41
2023-01-10T00:22:14.885Z,100092.56
2023-01-10T00:24:41.600Z,100102.13
2023-01-10T00:27:08.112Z,100106.78
2023-01-10T00:29:34.936Z,100111.56
2023-01-10T00:32:01.380Z,100111.31
2023-01-10T00:34:28.413Z,100122.03
2023-01-10T00:36:55.425Z,100130.31
2023-01-10T00:39:21.971Z,100137.31
2023-01-10T00:41:48.563Z,100133.22
2023-01-10T00:44:15.376Z,100138.34
2023-01-10T00:46:41.929Z,100149.28
2023-01-10T00:49:08.737Z,100163.13
2023-01-10T00:51:35.305Z,100168.25
2023-01-10T00:54:02.008Z,100182.22
2023-01-10T00:56:30.512Z,100177.25
2023-01-10T00:58:57.463Z,100183.28
2023-01-10T01:01:24.237Z,100188.84
2023-01-10T01:03:50.830Z,100197.50
2023-01-10T01:06:17.233Z,100202.22
2023-01-10T01:08:44.031Z,100200.03
2023-01-10T01:11:10.966Z,100223.88
2023-01-10T01:13:37.864Z,100222.84
2023-01-10T01:16:04.395Z,100223.88
2023-01-10T01:18:31.211Z,100230.28
2023-01-10T01:20:58.082Z,100241.00
2023-01-10T01:23:24.795Z,100236.69
2023-01-10T01:25:51.245Z,100245.56
2023-01-10T01:28:17.705Z,100244.13
2023-01-10T01:30:44.456Z,100252.31
2023-01-10T01:33:10.957Z,100258.09
2023-01-10T01:35:37.507Z,100266.34
2023-01-10T01:38:04.101Z,100264.28
2023-01-10T01:40:30.588Z,100270.44
2023-01-10T01:42:57.101Z,100269.66
2023-01-10T01:45:23.523Z,100279.75
2023-01-10T01:47:50.375Z,100280.78
2023-01-10T01:50:16.929Z,100289.63
2023-01-10T01:52:43.964Z,100283.03
2023-01-10T01:55:10.643Z,100296.03
2023-01-10T01:57:37.183Z,100293.13
2023-01-10T02:00:04.020Z,100290.25
2023-01-10T02:02:31.137Z,100294.53
2023-01-10T02:04:58.899Z,100291.50
2023-01-10T02:07:25.695Z,100296.88
2023-01-10T02:09:52.351Z,100298.72
2023-01-10T02:12:19.251Z,100297.31
2023-01-10T02:14:45.795Z,100296.25
2023-01-10T02:17:12.514Z,100301.81
2023-01-10T02:19:38.956Z,100308.63
2023-01-10T02:22:05.512Z,100315.00
2023-01-10T02:24:32.051Z,100314.19
2023-01-10T02:26:58.624Z,100322.44
2023-01-10T02:29:25.659Z,100318.72
2023-01-10T02:31:52.179Z,100319.16
2023-01-10T02:34:19.042Z,100312.53
2023-01-10T02:36:45.891Z,100312.78
2023-01-10T02:39:12.559Z,100306.81
2023-01-10T02:41:39.164Z,100305.56
2023-01-10T02:44:05.810Z,100316.03
2023-01-10T02:46:32.630Z,100326.75
2023-01-10T02:48:59.194Z,100324.06
2023-01-10T02:51:25.731Z,100336.06
2023-01-10T02:53:52.909Z,100330.47
2023-01-10T02:56:19.411Z,100345.72
2023-01-10T02:58:45.933Z,100343.03
2023-01-10T03:01:12.736Z,100348.59
2023-01-10T03:03:39.519Z,100352.31
2023-01-10T03:06:05.957Z,100355.84
2023-01-10T03:08:32.908Z,100357.91
2023-01-10T03:10:59.487Z,100352.53
2023-01-10T03:13:26.433Z,100363.25
2023-01-10T03:15:53.248Z,100370.28
2023-01-10T03:18:19.834Z,100370.28
2023-01-10T03:20:47.074Z,100368.19
2023-01-10T03:23:13.798Z,100379.31
2023-01-10T03:25:40.585Z,100385.50
2023-01-10T03:28:07.462Z,100393.75
2023-01-10T03:30:34.081Z,100396.66
2023-01-10T03:33:00.576Z,100400.16
2023-01-10T03:35:27.652Z,100399.31
2023-01-10T03:37:54.114Z,100408.75
2023-01-10T03:40:20.961Z,100417.41
2023-01-10T03:42:47.892Z,100425.44
2023-01-10T03:45:14.437Z,100439.25
2023-01-10T03:47:41.371Z,100446.25
2023-01-10T03:50:07.863Z,100447.50
2023-01-10T03:52:34.487Z,100459.63
2023-01-10T03:55:00.871Z,100458.22
2023-01-10T03:57:28.176Z,100459.03
2023-01-10T03:59:55.075Z,100465.44
2023-01-10T04:02:21.703Z,100463.13
2023-01-10T04:04:48.205Z,100467.06
2023-01-10T04:07:15.252Z,100472.44
2023-01-10T04:09:42.101Z,100479.03
2023-01-10T04:12:08.624Z,100481.50
2023-01-10T04:14:35.150Z,100479.84
2023-01-10T04:17:01.846Z,100493.47
2023-01-10T04:19:28.358Z,100494.50
2023-01-10T04:21:55.155Z,100497.78
2023-01-10T04:24:22.505Z,100508.50
2023-01-10T04:26:49.368Z,100514.28
2023-01-10T04:29:15.916Z,100518.00
2023-01-10T04:31:42.527Z,100514.88
2023-01-10T04:34:09.430Z,100528.88
2023-01-10T04:36:36.159Z,100521.03
2023-01-10T04:39:02.712Z,100537.09
2023-01-10T04:41:29.619Z,100547.00
2023-01-10T04:43:56.740Z,100542.88
2023-01-10T04:46:23.226Z,100554.44
2023-01-10T04:48:49.706Z,100564.09
2023-01-10T04:51:16.164Z,100572.94
2023-01-10T04:53:42.717Z,100573.78
2023-01-10T04:56:09.594Z,100575.84
2023-01-10T04:58:36.613Z,100578.53
2023-01-10T05:01:03.689Z,100584.28
2023-01-10T05:03:30.322Z,100586.75
2023-01-10T05:05:57.121Z,100586.53
2023-01-10T05:08:23.661Z,100587.81
2023-01-10T05:10:50.613Z,100590.28
2023-01-10T05:13:18.094Z,100600.34
2023-01-10T05:15:44.830Z,100606.53
2023-01-10T05:18:11.670Z,100602.03
2023-01-10T05:20:38.141Z,100612.72
2023-01-10T05:23:05.104Z,100611.69
2023-01-10T05:25:32.229Z,100615.63
2023-01-10T05:27:59.203Z,100624.22
2023-01-10T05:30:25.971Z,100624.44
2023-01-10T05:32:52.554Z,100626.09
2023-01-10T05:35:19.239Z,100633.50
2023-01-10T05:37:45.784Z,100639.69
2023-01-10T05:40:12.353Z,100656.19
2023-01-10T05:42:39.562Z,100652.88
2023-01-10T05:45:06.073Z,100663.78
2023-01-10T05:47:32.546Z,100661.31
2023-01-10T05:49:59.153Z,100669.97
2023-01-10T05:52:25.682Z,100680.47
2023-01-10T05:54:52.419Z,100680.47
2023-01-10T05:57:19.291Z,100679.22
2023-01-10T05:59:46.022Z,100687.47
2023-01-10T06:02:12.591Z,100701.91
2023-01-10T06:04:39.459Z,100697.16
2023-01-10T06:07:06.231Z,100702.09
2023-01-10T06:09:32.866Z,100701.91
2023-01-10T06:11:59.258Z,100706.44
2023-01-10T06:14:26.133Z,100719.38
2023-01-10T06:16:53.526Z,100719.38
2023-01-10T06:19:20.482Z,100731.13
2023-01-10T06:21:47.759Z,100741.25
2023-01-10T06:24:14.248Z,100739.78
2023-01-10T06:26:41.381Z,100751.94
2023-01-10T06:29:08.856Z,100751.31
2023-01-10T06:31:35.435Z,100755.44
2023-01-10T06:34:01.953Z,100759.16
2023-01-10T06:36:28.452Z,100771.91
2023-01-10T06:38:55.223Z,100772.94
2023-01-10T06:41:21.705Z,100784.06
2023-01-10T06:43:48.117Z,100786.13
2023-01-10T06:46:14.793Z,100788.19
2023-01-10T06:48:41.440Z,100794.75
2023-01-10T06:51:07.924Z,100801.56
2023-01-10T06:53:35.060Z,100811.84
2023-01-10T06:56:01.606Z,100819.28
2023-01-10T06:58:28.050Z,100821.31
2023-01-10T07:00:54.744Z,100825.88
2023-01-10T07:03:21.802Z,100821.75
2023-01-10T07:05:48.422Z,100826.28
2023-01-10T07:08:15.278Z,100827.91
2023-01-10T07:10:42.121Z,100835.53
2023-01-10T07:13:08.868Z,100835.75
2023-01-10T07:15:35.218Z,100836.56
2023-01-10T07:18:01.686Z,100840.25
2023-01-10T07:20:28.294Z,100841.09
2023-01-10T07:22:55.124Z,100852.44
2023-01-10T07:25:21.551Z,100859.81
2023-01-10T07:27:47.897Z,100865.19
2023-01-10T07:30:14.783Z,100867.44
2023-01-10T07:32:41.584Z,100870.75
2023-01-10T07:35:08.350Z,100871.97
2023-01-10T07:37:35.175Z,100876.28
2023-01-10T07:40:02.360Z,100890.72
2023-01-10T07:42:29.523Z,100893.38
2023-01-10T07:44:56.318Z,100891.75
2023-01-10T07:47:23.561Z,100901.63
2023-01-10T07:49:50.313Z,100904.72
2023-01-10T07:52:17.043Z,100907.41
2023-01-10T07:54:43.743Z,100903.91
2023-01-10T07:57:10.566Z,100904.94
2023-01-10T07:59:37.197Z,100913.16
2023-01-10T08:02:04.947Z,100929.81
2023-01-10T08:04:31.891Z,100915.63
2023-01-10T08:06:58.905Z,100916.69
2023-01-10T08:09:25.732Z,100915.44
2023-01-10T08:11:52.713Z,100924.25
2023-01-10T08:14:19.393Z,100924.06
2023-01-10T08:16:46.487Z,100930.66
2023-01-10T08:19:12.912Z,100930.84
2023-01-10T08:21:39.825Z,100930.06
2023-01-10T08:24:07.867Z,100937.25
2023-01-10T08:26:34.294Z,100941.38
2023-01-10T08:29:00.661Z,100945.88
2023-01-10T08:31:27.068Z,100951.66
2023-01-10T08:33:53.906Z,100956.38
2023-01-10T08:36:20.858Z,100964.84
2023-01-10T08:38:47.669Z,100971.41
2023-01-10T08:41:14.147Z,100983.78
2023-01-10T08:43:40.933Z,100987.91
2023-01-10T08:46:08.345Z,100994.69
2023-01-10T08:48:35.206Z,100988.69
2023-01-10T08:51:01.951Z,100995.09
2023-01-10T08:53:28.451Z,100994.69
2023-01-10T08:55:54.941Z,100997.97
2023-01-10T08:58:21.470Z,101003.13
2023-01-10T09:00:48.148Z,101008.47
2023-01-10T09:03:15.543Z,101009.72
2023-01-10T09:05:42.406Z,101005.59
2023-01-10T09:08:09.618Z,101014.03
2023-01-10T09:10:36.211Z,101027.41
2023-01-10T09:13:02.646Z,101024.94
2023-01-10T09:15:29.634Z,101026.81
2023-01-10T09:17:56.448Z,101026.59
2023-01-10T09:20:23.004Z,101040.19
2023-01-10T09:22:49.435Z,101041.00
2023-01-10T09:25:16.149Z,101042.03
2023-01-10T09:27:42.796Z,101046.16
2023-01-10T09:30:10.013Z,101048.81
2023-01-10T09:32:37.390Z,101057.03
2023-01-10T09:35:04.405Z,101059.53
2023-01-10T09:37:31.108Z,101056.63
2023-01-10T09:39:57.553Z,101073.94
2023-01-10T09:42:24.634Z,101072.31
2023-01-10T09:44:51.488Z,101076.63
2023-01-10T09:47:22.851Z,101073.09
2023-01-10T09:49:49.914Z,101071.88
2023-01-10T09:52:16.325Z,101071.47
2023-01-10T09:54:42.724Z,101082.38
2023-01-10T09:57:09.574Z,101073.09
2023-01-10T09:59:36.563Z,101070.00
2023-01-10T10:02:02.996Z,101073.53
2023-01-10T10:04:29.477Z,101074.13
2023-01-10T10:06:56.324Z,101076.81
2023-01-10T10:09:22.853Z,101074.13
2023-01-10T10:11:49.725Z,101079.91
2023-01-10T10:14:16.143Z,101087.72
2023-01-10T10:16:42.935Z,101088.56
2023-01-10T10:19:09.446Z,101082.16
2023-01-10T10:21:36.422Z,101085.69
2023-01-10T10:24:03.493Z,101086.47
2023-01-10T10:26:30.293Z,101085.88
2023-01-10T10:28:57.053Z,101090.63
2023-01-10T10:31:23.672Z,101094.09
2023-01-10T10:33:50.610Z,101096.16
2023-01-10T10:36:17.568Z,101101.94
2023-01-10T10:38:44.305Z,101098.00
2023-01-10T10:41:10.880Z,101100.50
2023-01-10T10:43:37.836Z,101100.50
2023-01-10T10:46:04.456Z,101097.59
2023-01-10T10:48:31.517Z,101097.81
2023-01-10T10:50:58.360Z,101087.09
2023-01-10T10:53:24.834Z,101088.56
2023-01-10T10:55:51.300Z,101091.22
2023-01-10T10:58:17.654Z,101097.63
2023-01-10T11:00:44.739Z,101097.41
2023-01-10T11:03:11.578Z,101096.78
2023-01-10T11:05:38.606Z,101112.03
2023-01-10T11:08:05.111Z,101115.31
2023-01-10T11:10:31.460Z,101110.81
2023-01-10T11:12:58.110Z,101120.66
2023-01-10T11:15:24.686Z,101127.06
2023-01-10T11:17:51.220Z,101122.72
2023-01-10T11:20:18.504Z,101128.91
2023-01-10T11:22:45.003Z,101134.66
2023-01-10T11:25:11.447Z,101123.16
2023-01-10T11:27:39.004Z,101123.75
2023-01-10T11:30:05.431Z,101134.25
2023-01-10T11:32:31.821Z,101131.19
2023-01-10T11:34:58.506Z,101125.19
2023-01-10T11:37:24.859Z,101131.56
2023-01-10T11:39:51.200Z,101146.81
2023-01-10T11:42:17.739Z,101149.50
2023-01-10T11:44:44.488Z,101156.69
2023-01-10T11:47:10.942Z,101159.16
2023-01-10T11:49:37.411Z,101154.00
2023-01-10T11:52:03.774Z,101155.84
2023-01-10T11:54:30.227Z,101152.78
2023-01-10T11:56:59.478Z,101145.78
2023-01-10T11:59:26.222Z,101144.53
2023-01-10T12:01:52.850Z,101144.16
2023-01-10T12:04:19.296Z,101143.50
2023-01-10T12:06:45.799Z,101154.00
2023-01-10T12:09:12.280Z,101147.00
2023-01-10T12:11:38.601Z,101156.50
2023-01-10T12:14:05.123Z,101152.38
2023-01-10T12:16:32.229Z,101152.38
2023-01-10T12:18:58.628Z,101147.00
2023-01-10T12:21:25.818Z,101150.31
2023-01-10T12:23:52.212Z,101145.97
2023-01-10T12:26:18.787Z,101168.44
2023-01-10T12:28:45.861Z,101173.59
2023-01-10T12:31:12.221Z,101170.91
2023-01-10T12:33:38.981Z,101167.97
2023-01-10T12:36:05.685Z,101184.69
2023-01-10T12:38:33.177Z,101185.94
2023-01-10T12:40:59.676Z,101194.78
2023-01-10T12:43:26.648Z,101194.56
2023-01-10T12:45:53.724Z,101191.72
2023-01-10T12:48:20.880Z,101188.69
2023-01-10T12:50:47.664Z,101190.97
2023-01-10T12:53:14.671Z,101194.91
2023-01-10T12:55:40.972Z,101200.66
2023-01-10T12:58:07.854Z,101197.78
2023-01-10T13:00:40.552Z,101201.06
2023-01-10T13:03:13.910Z,101209.31
2023-01-10T13:05:40.308Z,101210.56
2023-01-10T13:08:07.066Z,101213.91
2023-01-10T13:10:33.415Z,101209.81
2023-01-10T13:13:00.223Z,101212.69
2023-01-10T13:15:27.008Z,101213.53
2023-01-10T13:17:54.156Z,101214.16
2023-01-10T13:20:20.589Z,101213.13
2023-01-10T13:22:47.515Z,101210.88
2023-01-10T13:25:15.657Z,101212.75
2023-01-10T13:27:42.281Z,101212.34
2023-01-10T13:30:08.775Z,101219.75
2023-01-10T13:32:35.880Z,101223.28
2023-01-10T13:35:03.309Z,101227.41
2023-01-10T13:37:30.076Z,101228.84
2023-01-10T13:39:56.966Z,101235.47
2023-01-10T13:42:23.740Z,101248.69
2023-01-10T13:44:50.647Z,101246.84
2023-01-10T13:47:17.079Z,101250.53
2023-01-10T13:49:43.521Z,101252.19
2023-01-10T13:52:10.348Z,101262.72
2023-01-10T13:54:36.978Z,101260.25
2023-01-10T13:57:03.576Z,101266.22
2023-01-10T13:59:30.097Z,101261.28
2023-01-10T14:01:56.766Z,101263.97
2023-01-10T14:04:24.090Z,101265.19
2023-01-10T14:06:50.497Z,101258.16
2023-01-10T14:09:18.554Z,101258.78
2023-01-10T14:11:46.232Z,101248.63
2023-01-10T14:14:13.318Z,101253.56
2023-01-10T14:19:06.673Z,101264.06
2023-01-10T14:21:33.064Z,101276.25
2023-01-10T14:23:59.441Z,101269.00
2023-01-10T14:26:26.390Z,101271.00
2023-01-10T14:28:53.452Z,101269.75
2023-01-10T14:31:20.000Z,101275.72
2023-01-10T14:33:46.585Z,101280.66
2023-01-10T14:36:13.135Z,101278.53
2023-01-10T14:38:39.532Z,101284.09
2023-01-10T14:41:06.377Z,101287.78
2023-01-10T14:43:33.343Z,101280.34
2023-01-10T14:45:59.934Z,101284.25
2023-01-10T14:48:26.581Z,101280.91
2023-01-10T14:50:52.975Z,101277.59
2023-01-10T14:53:19.683Z,101286.25
2023-01-10T14:55:46.572Z,101277.75
2023-01-10T14:58:13.652Z,101272.16
2023-01-10T15:00:40.254Z,101274.84
2023-01-10T15:03:06.995Z,101258.06
2023-01-10T15:05:33.565Z,101268.00
2023-01-10T15:08:00.322Z,101263.00
2023-01-10T15:10:26.827Z,101264.66
2023-01-10T15:12:53.231Z,101273.53
2023-01-10T15:15:19.736Z,101281.19
2023-01-10T15:17:46.164Z,101281.41
2023-01-10T15:20:13.281Z,101278.50
2023-01-10T15:22:40.246Z,101283.88
2023-01-10T15:25:06.638Z,101287.38
2023-01-10T15:27:33.036Z,101283.44
2023-01-10T15:29:59.460Z,101283.66
2023-01-10T15:32:25.807Z,101291.94
2023-01-10T15:34:52.528Z,101298.59
2023-01-10T15:37:19.855Z,101303.34
2023-01-10T15:39:46.841Z,101308.94
2023-01-10T15:42:13.179Z,101311.00
2023-01-10T15:44:39.986Z,101312.41
2023-01-10T15:47:06.343Z,101314.25
2023-01-10T15:49:32.722Z,101308.66
2023-01-10T15:51:59.123Z,101316.69
2023-01-10T15:54:25.543Z,101318.97
2023-01-10T15:56:52.676Z,101321.81
2023-01-10T15:59:19.763Z,101321.19
2023-01-10T16:01:46.822Z,101322.56
2023-01-10T16:04:13.706Z,101322.94
2023-01-10T16:06:40.141Z,101320.19
2023-01-10T16:09:06.750Z,101323.03
2023-01-10T16:11:33.078Z,101323.00
2023-01-10T16:13:59.517Z,101310.53
2023-01-10T16:16:25.858Z,101311.66
2023-01-10T16:18:52.990Z,101318.03
2023-01-10T16:21:19.430Z,101316.94
2023-01-10T16:23:45.917Z,101322.88
2023-01-10T16:26:12.533Z,101318.50
2023-01-10T16:28:39.433Z,101322.16
2023-01-10T16:31:06.855Z,101314.81
2023-01-10T16:33:33.453Z,101318.88
2023-01-10T16:36:00.338Z,101312.59
2023-01-10T16:38:26.673Z,101307.34
2023-01-10T16:40:53.150Z,101310.78
2023-01-10T16:43:20.158Z,101312.72
2023-01-10T16:45:47.170Z,101310.78
2023-01-10T16:48:13.798Z,101311.50
2023-01-10T16:50:40.663Z,101312.47
2023-01-10T16:53:07.632Z,101306.75
2023-01-10T16:55:34.487Z,101311.22
2023-01-10T16:58:00.965Z,101306.38
2023-01-10T17:00:27.523Z,101304.41
2023-01-10T17:02:53.920Z,101302.66
2023-01-10T17:05:20.273Z,101307.16
2023-01-10T17:07:47.415Z,101306.22
2023-01-10T17:10:14.303Z,101300.72
2023-01-10T17:12:41.182Z,101304.59
2023-01-10T17:15:07.757Z,101317.19
2023-01-10T17:17:34.219Z,101312.38
2023-01-10T17:20:01.172Z,101305.78
2023-01-10T17:22:28.198Z,101299.94
2023-01-10T17:24:54.549Z,101314.38
2023-01-10T17:27:21.113Z,101309.34
2023-01-10T17:29:48.055Z,101309.44
2023-01-10T17:32:14.505Z,101304.16
2023-01-10T17:34:41.467Z,101302.97
2023-01-10T17:37:08.639Z,101308.34
2023-01-10T17:39:36.271Z,101312.81
2023-01-10T17:42:03.080Z,101304.34
2023-01-10T17:44:29.456Z,101302.94
2023-01-10T17:46:56.585Z,101311.63
2023-01-10T17:49:23.139Z,101319.47
2023-01-10T17:51:49.561Z,101323.25
2023-01-10T17:54:16.373Z,101325.56
2023-01-10T17:56:43.180Z,101325.81
2023-01-10T17:59:10.088Z,101324.16
2023-01-10T18:01:36.736Z,101329.53
2023-01-10T18:04:03.672Z,101325.34
2023-01-10T18:06:30.145Z,101327.47
2023-01-10T18:08:56.715Z,101330.91
2023-01-10T18:11:23.033Z,101316.34
2023-01-10T18:13:49.677Z,101319.47
2023-01-10T18:16:16.341Z,101317.84
2023-01-10T18:18:43.063Z,101315.16
2023-01-10T18:21:09.476Z,101318.91
2023-01-10T18:23:35.969Z,101316.22
2023-01-10T18:26:02.726Z,101318.06
2023-01-10T18:28:40.478Z,101319.94
2023-01-10T18:31:07.124Z,101323.13
2023-01-10T18:33:34.129Z,101326.84
2023-01-10T18:36:01.116Z,101318.28
2023-01-10T18:38:27.644Z,101317.72
2023-01-10T18:40:54.836Z,101321.00
2023-01-10T18:43:21.740Z,101321.22
2023-01-10T18:45:48.117Z,101316.88
2023-01-10T18:48:14.990Z,101323.34
2023-01-10T18:50:41.503Z,101316.53
2023-01-10T18:53:08.704Z,101321.09
2023-01-10T18:55:35.940Z,101315.91
2023-01-10T18:58:02.696Z,101307.03
2023-01-10T19:00:29.552Z,101323.78
2023-01-10T19:02:56.459Z,101313.84
2023-01-10T19:05:23.314Z,101309.94
2023-01-10T19:07:50.254Z,101308.88
2023-01-10T19:10:17.444Z,101305.72
2023-01-10T19:12:43.903Z,101307.94
2023-01-10T19:15:11.370Z,101312.78
2023-01-10T19:17:38.432Z,101300.22
2023-01-10T19:20:05.073Z,101299.03
2023-01-10T19:22:32.573Z,101293.63
2023-01-10T19:24:58.977Z,101301.13
2023-01-10T19:27:25.395Z,101296.56
2023-01-10T19:29:51.937Z,101290.78
2023-01-10T19:32:18.322Z,101301.56
2023-01-10T19:34:46.427Z,101295.38
2023-01-10T19:37:13.895Z,101297.84
2023-01-10T19:39:40.482Z,101299.94
2023-01-10T19:42:06.881Z,101302.03
2023-01-10T19:44:33.325Z,101292.44
2023-01-10T19:46:59.768Z,101291.84
2023-01-10T19:49:26.226Z,101283.72
2023-01-10T19:51:52.976Z,101286.88
2023-01-10T19:54:20.356Z,101286.31
2023-01-10T19:56:47.795Z,101277.56
2023-01-10T19:59:14.384Z,101275.75
2023-01-10T20:01:41.596Z,101275.94
2023-01-10T20:04:07.912Z,101267.25
2023-01-10T20:06:35.237Z,101272.28
2023-01-10T20:09:02.166Z,101270.63
2023-01-10T20:11:28.859Z,101276.88
2023-01-10T20:13:55.795Z,101262.31
2023-01-10T20:16:22.422Z,101260.91
2023-01-10T20:18:49.177Z,101261.13
2023-01-10T20:21:16.450Z,101264.06
2023-01-10T20:23:42.785Z,101264.44
2023-01-10T20:26:09.980Z,101254.94
2023-01-10T20:28:36.523Z,101255.59
2023-01-10T20:31:02.989Z,101254.56
2023-01-10T20:33:29.367Z,101251.28
2023-01-10T20:35:55.842Z,101255.41
2023-01-10T20:38:22.851Z,101254.34
2023-01-10T20:40:49.394Z,101241.50
2023-01-10T20:43:15.976Z,101245.84
2023-01-10T20:45:42.389Z,101240.44
2023-01-10T20:48:09.182Z,101250.59
2023-01-10T20:50:36.072Z,101256.47
2023-01-10T20:53:03.140Z,101249.44
2023-01-10T20:55:29.874Z,101249.44
2023-01-10T20:57:56.929Z,101243.28
2023-01-10T21:00:23.460Z,101245.59
2023-01-10T21:02:50.378Z,101251.28
2023-01-10T21:05:16.975Z,101245.69
2023-01-10T21:07:43.611Z,101246.47
2023-01-10T21:10:10.480Z,101243.88
2023-01-10T21:12:37.441Z,101242.56
2023-01-10T21:15:04.242Z,101245.59
2023-01-10T21:17:30.653Z,101240.28
2023-01-10T21:19:58.148Z,101234.56
2023-01-10T21:22:25.078Z,101238.34
2023-01-10T21:24:51.724Z,101235.22
2023-01-10T21:27:18.890Z,101235.00
2023-01-10T21:29:45.432Z,101238.03
2023-01-10T21:32:11.855Z,101236.75
2023-01-10T21:34:38.346Z,101231.97
2023-01-10T21:37:05.029Z,101239.22
2023-01-10T21:39:31.704Z,101238.66
2023-01-10T21:41:58.668Z,101232.41
2023-01-10T21:44:25.144Z,101236.97
2023-01-10T21:46:52.030Z,101242.38
2023-01-10T21:49:18.504Z,101244.03
2023-01-10T21:51:44.944Z,101247.75
2023-01-10T21:54:11.394Z,101238.50
2023-01-10T21:56:37.752Z,101237.56
2023-01-10T21:59:04.161Z,101241.28
2023-01-10T22:01:30.606Z,101241.28
2023-01-10T22:03:57.196Z,101231.09
2023-01-10T22:06:23.640Z,101237.16
2023-01-10T22:08:50.099Z,101231.19
2023-01-10T22:11:16.652Z,101236.47
2023-01-10T22:13:43.022Z,101219.63
2023-01-10T22:16:09.554Z,101223.38
2023-01-10T22:18:36.101Z,101215.53
2023-01-10T22:21:02.815Z,101208.25
2023-01-10T22:23:29.403Z,101204.97
2023-01-10T22:25:55.984Z,101195.00
2023-01-10T22:28:22.375Z,101204.34
2023-01-10T22:30:48.801Z,101196.53
2023-01-10T22:33:15.215Z,101193.22
2023-01-10T22:35:41.690Z,101201.53
2023-01-10T22:38:08.279Z,101195.56
2023-01-10T22:40:34.632Z,101187.47
2023-01-10T22:43:01.159Z,101185.84
2023-01-10T22:45:27.854Z,101177.13
2023-01-10T22:47:55.235Z,101187.56
2023-01-10T22:50:21.643Z,101186.94
2023-01-10T22:52:48.284Z,101173.94
2023-01-10T22:55:14.763Z,101181.44
2023-01-10T22:57:47.277Z,101178.16
2023-01-10T23:00:13.985Z,101176.97
2023-01-10T23:02:40.706Z,101179.03
2023-01-10T23:05:07.314Z,101169.75
2023-01-10T23:07:33.755Z,101165.66
2023-01-10T23:10:00.136Z,101165.88
2023-01-10T23:12:26.968Z,101165.28
2023-01-10T23:14:54.743Z,101161.19
2023-01-10T23:17:22.019Z,101154.38
2023-01-10T23:19:49.030Z,101148.34
2023-01-10T23:22:15.677Z,101147.78
2023-01-10T23:24:42.985Z,101146.34
2023-01-10T23:27:09.924Z,101142.25
2023-01-10T23:29:36.221Z,101132.72
2023-01-10T23:32:03.199Z,101128.59
2023-01-10T23:34:29.696Z,101128.03
2023-01-10T23:36:56.466Z,101121.44
2023-01-10T23:39:23.345Z,101128.91
2023-01-10T23:41:50.383Z,101120.25
2023-01-10T23:44:16.819Z,101113.66
2023-01-10T23:46:43.200Z,101102.53
2023-01-10T23:49:10.102Z,101099.00
2023-01-10T23:51:36.869Z,101105.69
2023-01-10T23:54:03.616Z,101097.00
2023-01-10T23:56:30.070Z,101096.19
2023-01-10T23:58:56.535Z,101096.41
